Time,TemperatureF,DewpointF,PressureIn,WindDirection,WindDirectionDegrees,WindSpeedMPH,WindSpeedGustMPH,Humidity,HourlyPrecipIn,Conditions,Clouds,dailyrainin,SoftwareType,DateUTC
2013-04-22 00:00:00,75.5,72.0,29.88,NE,35,0.0,0.0,89,0.00,BKN,,0.00,WeatherDisplay:10.37,2013-04-21 14:00:00,
2013-04-22 00:05:00,75.5,72.0,29.88,NE,35,0.0,0.0,89,0.00,BKN,,0.00,WeatherDisplay:10.37,2013-04-21 14:05:00,
2013-04-22 00:15:00,75.6,72.2,29.88,NE,35,0.0,0.0,89,0.00,BKN,,0.00,WeatherDisplay:10.37,2013-04-21 14:15:00,
2013-04-22 00:20:00,75.7,72.2,29.88,NE,35,0.0,0.0,89,0.00,BKN,,0.00,WeatherDisplay:10.37,2013-04-21 14:20:00,
2013-04-22 00:25:00,75.7,72.2,29.88,NE,35,0.0,0.0,89,0.00,BKN,,0.00,WeatherDisplay:10.37,2013-04-21 14:25:00,
2013-04-22 00:30:00,75.7,72.2,29.87,NE,35,0.0,0.0,89,0.00,BKN,,0.00,WeatherDisplay:10.37,2013-04-21 14:30:00,
2013-04-22 00:35:00,75.8,72.3,29.87,NE,35,0.0,0.0,89,0.00,BKN,,0.00,WeatherDisplay:10.37,2013-04-21 14:35:00,
2013-04-22 00:45:00,75.9,72.4,29.87,NE,37,0.0,3.0,89,0.00,BKN,,0.00,WeatherDisplay:10.37,2013-04-21 14:45:00,
2013-04-22 00:50:00,76.0,72.5,29.87,NE,39,0.0,1.0,89,0.00,BKN,,0.00,WeatherDisplay:10.37,2013-04-21 14:50:00,
2013-04-22 00:55:00,76.1,72.3,29.87,NE,39,0.0,2.0,88,0.00,BKN,,0.00,WeatherDisplay:10.37,2013-04-21 14:55:00,
2013-04-22 01:00:00,76.2,72.4,29.87,NE,39,0.0,1.0,88,0.00,BKN,,0.00,WeatherDisplay:10.37,2013-04-21 15:00:00,
2013-04-22 01:05:00,76.3,72.5,29.86,NE,39,0.0,2.0,88,0.00,BKN,,0.00,WeatherDisplay:10.37,2013-04-21 15:05:00,
2013-04-22 01:10:00,76.3,72.5,29.86,NE,39,0.0,1.0,88,0.00,BKN,,0.00,WeatherDisplay:10.37,2013-04-21 15:10:00,
2013-04-22 01:15:00,76.4,72.6,29.86,NE,39,0.0,1.0,88,0.00,BKN,,0.00,WeatherDisplay:10.37,2013-04-21 15:15:00,
2013-04-22 01:20:00,76.4,72.6,29.86,NE,39,0.0,2.0,88,0.00,BKN,,0.00,WeatherDisplay:10.37,2013-04-21 15:20:00,
2013-04-22 01:25:00,76.5,72.6,29.86,NE,39,0.0,1.0,88,0.00,BKN,,0.00,WeatherDisplay:10.37,2013-04-21 15:25:00,
2013-04-22 01:30:00,76.4,72.6,29.86,NE,39,0.0,0.0,88,0.00,BKN,,0.00,WeatherDisplay:10.37,2013-04-21 15:30:00,
2013-04-22 01:35:00,76.4,72.6,29.86,NE,39,0.0,0.0,88,0.00,BKN,,0.00,WeatherDisplay:10.37,2013-04-21 15:35:00,
2013-04-22 01:40:00,76.4,72.6,29.86,NE,39,0.0,0.0,88,0.00,BKN,,0.00,WeatherDisplay:10.37,2013-04-21 15:40:00,
2013-04-22 01:45:00,76.3,72.5,29.85,NE,39,0.0,0.0,88,0.00,BKN,,0.00,WeatherDisplay:10.37,2013-04-21 15:45:00,
2013-04-22 01:50:00,76.2,72.4,29.85,NE,39,0.0,0.0,88,0.00,BKN,,0.00,WeatherDisplay:10.37,2013-04-21 15:50:00,
2013-04-22 01:55:00,76.0,72.2,29.85,NE,39,0.0,1.0,88,0.00,BKN,,0.00,WeatherDisplay:10.37,2013-04-21 15:55:00,
2013-04-22 02:00:00,75.8,72.0,29.85,NE,39,0.0,0.0,88,0.00,BKN,,0.00,WeatherDisplay:10.37,2013-04-21 16:00:00,
2013-04-22 02:10:00,75.6,72.1,29.85,NE,39,0.0,0.0,89,0.00,BKN,,0.00,WeatherDisplay:10.37,2013-04-21 16:10:00,
2013-04-22 02:20:00,75.3,71.8,29.85,NE,39,0.0,0.0,89,0.00,BKN,,0.00,WeatherDisplay:10.37,2013-04-21 16:20:00,
2013-04-22 02:25:00,75.2,71.7,29.85,NE,39,0.0,0.0,89,0.00,BKN,,0.00,WeatherDisplay:10.37,2013-04-21 16:25:00,
2013-04-22 02:30:00,75.0,71.6,29.84,NE,39,0.0,0.0,89,0.00,BKN,,0.00,WeatherDisplay:10.37,2013-04-21 16:30:00,
2013-04-22 02:35:00,74.9,71.4,29.84,NE,39,0.0,0.0,89,0.00,BKN,,0.00,WeatherDisplay:10.37,2013-04-21 16:35:00,
2013-04-22 02:40:00,74.8,71.3,29.84,NE,39,0.0,0.0,89,0.00,BKN,,0.00,WeatherDisplay:10.37,2013-04-21 16:40:00,
2013-04-22 02:45:00,74.6,71.1,29.84,NE,39,0.0,0.0,89,0.00,BKN,,0.00,WeatherDisplay:10.37,2013-04-21 16:45:00,
2013-04-22 02:50:00,74.4,70.9,29.84,NE,39,0.0,0.0,89,0.00,BKN,,0.00,WeatherDisplay:10.37,2013-04-21 16:50:00,
2013-04-22 02:55:00,74.2,71.1,29.84,NE,39,0.0,0.0,90,0.00,BKN,,0.00,WeatherDisplay:10.37,2013-04-21 16:55:00,
2013-04-22 03:00:00,74.1,70.9,29.83,NE,39,0.0,0.0,90,0.00,BKN,,0.00,WeatherDisplay:10.37,2013-04-21 17:00:00,
2013-04-22 03:05:00,73.9,70.8,29.83,NE,39,0.0,0.0,90,0.00,BKN,,0.00,WeatherDisplay:10.37,2013-04-21 17:05:00,
2013-04-22 03:10:00,73.7,70.6,29.83,NE,39,0.0,0.0,90,0.00,BKN,,0.00,WeatherDisplay:10.37,2013-04-21 17:10:00,
2013-04-22 03:15:00,73.7,70.5,29.84,NE,39,0.0,0.0,90,0.00,BKN,,0.00,WeatherDisplay:10.37,2013-04-21 17:15:00,
2013-04-22 03:25:00,73.6,70.8,29.83,NE,39,0.0,1.0,91,0.00,SCT,,0.00,WeatherDisplay:10.37,2013-04-21 17:25:00,
2013-04-22 03:30:00,73.6,70.8,29.83,NE,39,0.0,1.0,91,0.00,FEW,,0.00,WeatherDisplay:10.37,2013-04-21 17:30:00,
2013-04-22 03:35:00,73.7,70.9,29.83,NE,39,0.0,1.0,91,0.00,FEW,,0.00,WeatherDisplay:10.37,2013-04-21 17:35:00,
2013-04-22 03:45:00,73.7,70.9,29.83,West,280,0.0,1.0,91,0.00,FEW,,0.00,WeatherDisplay:10.37,2013-04-21 17:45:00,
2013-04-22 03:50:00,73.7,70.9,29.83,West,270,0.0,2.0,91,0.00,FEW,,0.00,WeatherDisplay:10.37,2013-04-21 17:50:00,
2013-04-22 03:55:00,73.7,70.9,29.83,West,264,0.0,3.0,91,0.00,FEW,,0.00,WeatherDisplay:10.37,2013-04-21 17:55:00,
2013-04-22 04:00:00,73.7,70.9,29.83,WSW,255,0.0,0.0,91,0.00,FEW,,0.00,WeatherDisplay:10.37,2013-04-21 18:00:00,
2013-04-22 04:10:00,73.8,71.0,29.83,WSW,251,0.0,3.0,91,0.00,FEW,,0.00,WeatherDisplay:10.37,2013-04-21 18:10:00,
2013-04-22 04:20:00,73.7,70.9,29.83,WSW,251,0.0,1.0,91,0.00,FEW,,0.00,WeatherDisplay:10.37,2013-04-21 18:20:00,
2013-04-22 04:25:00,73.7,70.9,29.83,WSW,251,0.0,1.0,91,0.00,FEW,,0.00,WeatherDisplay:10.37,2013-04-21 18:25:00,
2013-04-22 04:30:00,73.6,70.9,29.84,WSW,251,0.0,1.0,91,0.00,FEW,,0.00,WeatherDisplay:10.37,2013-04-21 18:30:00,
2013-04-22 04:35:00,73.6,70.8,29.84,WSW,251,0.0,2.0,91,0.00,FEW,,0.00,WeatherDisplay:10.37,2013-04-21 18:35:00,
2013-04-22 04:45:00,73.5,70.7,29.84,WSW,251,0.0,0.0,91,0.00,FEW,,0.00,WeatherDisplay:10.37,2013-04-21 18:45:00,
2013-04-22 04:50:00,73.4,70.6,29.84,WSW,251,0.0,0.0,91,0.00,FEW,,0.00,WeatherDisplay:10.37,2013-04-21 18:50:00,
2013-04-22 04:55:00,73.2,70.5,29.84,WSW,251,0.0,0.0,91,0.00,FEW,,0.00,WeatherDisplay:10.37,2013-04-21 18:55:00,
2013-04-22 05:00:00,73.1,70.4,29.84,WSW,251,0.0,0.0,91,0.00,FEW,,0.00,WeatherDisplay:10.37,2013-04-21 19:00:00,
2013-04-22 05:05:00,73.3,70.5,29.84,WSW,251,0.0,1.0,91,0.00,FEW,,0.00,WeatherDisplay:10.37,2013-04-21 19:05:00,
2013-04-22 05:10:00,73.3,70.5,29.84,WSW,250,0.0,3.0,91,0.00,FEW,,0.00,WeatherDisplay:10.37,2013-04-21 19:10:00,
2013-04-22 05:20:00,73.5,70.7,29.84,WSW,239,0.0,2.0,91,0.00,FEW,,0.00,WeatherDisplay:10.37,2013-04-21 19:20:00,
2013-04-22 05:25:00,73.5,70.7,29.84,WSW,239,0.0,3.0,91,0.00,FEW,,0.00,WeatherDisplay:10.37,2013-04-21 19:25:00,
2013-04-22 05:30:00,73.5,70.7,29.85,WSW,239,0.0,3.0,91,0.00,FEW,,0.00,WeatherDisplay:10.37,2013-04-21 19:30:00,
2013-04-22 05:35:00,73.5,70.7,29.85,WSW,238,1.0,3.0,91,0.00,FEW,,0.00,WeatherDisplay:10.37,2013-04-21 19:35:00,
2013-04-22 05:40:00,73.6,70.8,29.85,WSW,237,1.0,4.0,91,0.00,FEW,,0.00,WeatherDisplay:10.37,2013-04-21 19:40:00,
2013-04-22 05:45:00,73.5,70.7,29.85,SSW,210,0.0,3.0,91,0.00,FEW,,0.00,WeatherDisplay:10.37,2013-04-21 19:45:00,
2013-04-22 05:55:00,73.5,70.7,29.86,SW,218,0.0,3.0,91,0.00,FEW,,0.00,WeatherDisplay:10.37,2013-04-21 19:55:00,
2013-04-22 06:00:00,73.5,70.7,29.86,SW,231,0.0,3.0,91,0.00,FEW,,0.00,WeatherDisplay:10.37,2013-04-21 20:00:00,
2013-04-22 06:10:00,73.4,70.7,29.86,WSW,239,0.0,3.0,91,0.00,FEW,,0.00,WeatherDisplay:10.37,2013-04-21 20:10:00,
2013-04-22 06:15:00,73.4,70.6,29.86,WSW,239,0.0,2.0,91,0.00,FEW,,0.00,WeatherDisplay:10.37,2013-04-21 20:15:00,
2013-04-22 06:20:00,73.4,70.6,29.87,WSW,239,0.0,2.0,91,0.00,FEW,,0.00,WeatherDisplay:10.37,2013-04-21 20:20:00,
2013-04-22 06:25:00,73.3,70.5,29.87,WSW,240,0.0,2.0,91,0.00,FEW,,0.00,WeatherDisplay:10.37,2013-04-21 20:25:00,
2013-04-22 06:35:00,73.3,70.5,29.87,SW,223,0.0,3.0,91,0.00,FEW,,0.00,WeatherDisplay:10.37,2013-04-21 20:35:00,
2013-04-22 06:40:00,73.4,70.6,29.87,SW,222,0.0,2.0,91,0.00,FEW,,0.00,WeatherDisplay:10.37,2013-04-21 20:40:00,
2013-04-22 06:45:00,73.5,70.7,29.88,SW,226,1.0,4.0,91,0.00,FEW,,0.00,WeatherDisplay:10.37,2013-04-21 20:45:00,
2013-04-22 06:55:00,73.7,70.9,29.88,SW,217,1.0,3.0,91,0.00,FEW,,0.00,WeatherDisplay:10.37,2013-04-21 20:55:00,
2013-04-22 07:00:00,73.8,71.0,29.89,SSW,199,1.0,4.0,91,0.00,FEW,,0.00,WeatherDisplay:10.37,2013-04-21 21:00:00,
2013-04-22 07:05:00,73.9,71.1,29.89,SSW,198,1.0,5.0,91,0.00,FEW,,0.00,WeatherDisplay:10.37,2013-04-21 21:05:00,
2013-04-22 07:15:00,74.1,71.3,29.89,SSW,207,1.0,4.0,91,0.00,FEW,,0.00,WeatherDisplay:10.37,2013-04-21 21:15:00,
2013-04-22 07:20:00,74.2,71.4,29.90,SSW,205,1.0,4.0,91,0.00,SCT,,0.00,WeatherDisplay:10.37,2013-04-21 21:20:00,
2013-04-22 07:25:00,74.3,71.5,29.90,SSW,195,2.0,6.0,91,0.00,SCT,,0.00,WeatherDisplay:10.37,2013-04-21 21:25:00,
2013-04-22 07:30:00,74.5,71.4,29.90,SW,216,2.0,6.0,90,0.00,SCT,,0.00,WeatherDisplay:10.37,2013-04-21 21:30:00,
2013-04-22 07:35:00,74.6,71.5,29.90,SW,225,1.0,5.0,90,0.00,SCT,,0.00,WeatherDisplay:10.37,2013-04-21 21:35:00,
2013-04-22 07:45:00,75.2,72.1,29.91,SW,224,1.0,3.0,90,0.00,SCT,,0.00,WeatherDisplay:10.37,2013-04-21 21:45:00,
2013-04-22 07:55:00,75.8,72.6,29.91,SSW,207,0.0,4.0,90,0.00,SCT,,0.00,WeatherDisplay:10.37,2013-04-21 21:55:00,
2013-04-22 08:00:00,76.1,72.6,29.91,SW,220,2.0,4.0,89,0.00,SCT,,0.00,WeatherDisplay:10.37,2013-04-21 22:00:00,
2013-04-22 08:10:00,76.7,72.9,29.92,SSW,209,0.0,4.0,88,0.00,SCT,,0.00,WeatherDisplay:10.37,2013-04-21 22:10:00,
2013-04-22 08:15:00,77.1,72.9,29.92,SSW,213,1.0,3.0,87,0.00,SCT,,0.00,WeatherDisplay:10.37,2013-04-21 22:15:00,
2013-04-22 08:20:00,77.5,73.3,29.92,SW,229,0.0,4.0,87,0.00,SCT,,0.00,WeatherDisplay:10.37,2013-04-21 22:20:00,
2013-04-22 08:25:00,78.0,73.4,29.92,SSW,200,0.0,3.0,86,0.00,SCT,,0.00,WeatherDisplay:10.37,2013-04-21 22:25:00,
2013-04-22 08:30:00,78.4,73.5,29.92,South,171,1.0,4.0,85,0.00,SCT,,0.00,WeatherDisplay:10.37,2013-04-21 22:30:00,
2013-04-22 08:35:00,78.8,73.9,29.92,SW,214,0.0,4.0,85,0.00,SCT,,0.00,WeatherDisplay:10.37,2013-04-21 22:35:00,
2013-04-22 08:40:00,79.3,74.0,29.93,SW,224,0.0,2.0,84,0.00,SCT,,0.00,WeatherDisplay:10.37,2013-04-21 22:40:00,
2013-04-22 08:45:00,79.7,73.7,29.93,SW,230,0.0,3.0,82,0.00,SCT,,0.00,WeatherDisplay:10.37,2013-04-21 22:45:00,
2013-04-22 08:50:00,80.1,74.1,29.93,WSW,239,0.0,2.0,82,0.00,SCT,,0.00,WeatherDisplay:10.37,2013-04-21 22:50:00,
2013-04-22 08:55:00,80.6,74.2,29.93,WSW,241,0.0,1.0,81,0.00,SCT,,0.00,WeatherDisplay:10.37,2013-04-21 22:55:00,
2013-04-22 09:00:00,80.9,74.1,29.93,WSW,241,0.0,3.0,80,0.00,SCT,,0.00,WeatherDisplay:10.37,2013-04-21 23:00:00,
2013-04-22 09:10:00,81.9,74.8,29.93,WSW,247,0.0,3.0,79,0.00,SCT,,0.00,WeatherDisplay:10.37,2013-04-21 23:10:00,
2013-04-22 09:15:00,82.6,74.7,29.93,WSW,247,1.0,2.0,77,0.00,SCT,,0.00,WeatherDisplay:10.37,2013-04-21 23:15:00,
2013-04-22 09:25:00,83.6,75.3,29.94,WSW,247,1.0,3.0,76,0.00,SCT,,0.00,WeatherDisplay:10.37,2013-04-21 23:25:00,
2013-04-22 09:30:00,83.9,75.1,29.94,WSW,247,1.0,3.0,75,0.00,SCT,,0.00,WeatherDisplay:10.37,2013-04-21 23:30:00,
2013-04-22 09:35:00,84.0,75.6,29.94,WSW,247,1.0,3.0,76,0.00,SCT,,0.00,WeatherDisplay:10.37,2013-04-21 23:35:00,
2013-04-22 09:40:00,84.5,76.1,29.94,WSW,247,1.0,2.0,76,0.00,SCT,,0.00,WeatherDisplay:10.37,2013-04-21 23:40:00,
2013-04-22 09:45:00,84.6,75.8,29.94,WSW,248,2.0,4.0,75,0.00,SCT,,0.00,WeatherDisplay:10.37,2013-04-21 23:45:00,
2013-04-22 09:50:00,84.2,75.4,29.95,WSW,252,0.0,3.0,75,0.00,SCT,,0.00,WeatherDisplay:10.37,2013-04-21 23:50:00,
2013-04-22 09:55:00,83.8,75.0,29.94,WSW,256,1.0,2.0,75,0.00,SCT,,0.00,WeatherDisplay:10.37,2013-04-21 23:55:00,
2013-04-22 10:00:00,83.3,75.3,29.94,WSW,256,0.0,1.0,77,0.00,SCT,,0.00,WeatherDisplay:10.37,2013-04-22 00:00:00,
2013-04-22 10:10:00,83.9,76.3,29.94,West,259,1.0,3.0,78,0.00,SCT,,0.00,WeatherDisplay:10.37,2013-04-22 00:10:00,
2013-04-22 10:20:00,85.7,76.9,29.94,NW,306,0.0,2.0,75,0.00,FEW,,0.00,WeatherDisplay:10.37,2013-04-22 00:20:00,
2013-04-22 10:25:00,86.3,77.4,29.94,North,358,0.0,2.0,75,0.00,FEW,,0.00,WeatherDisplay:10.37,2013-04-22 00:25:00,
2013-04-22 10:30:00,86.7,77.0,29.93,NNE,19,2.0,3.0,73,0.00,FEW,,0.00,WeatherDisplay:10.37,2013-04-22 00:30:00,
2013-04-22 10:35:00,86.6,77.4,29.93,NNE,23,0.0,1.0,74,0.00,FEW,,0.00,WeatherDisplay:10.37,2013-04-22 00:35:00,
2013-04-22 10:45:00,87.0,78.1,29.93,NNE,25,0.0,2.0,75,0.00,FEW,,0.00,WeatherDisplay:10.37,2013-04-22 00:45:00,
2013-04-22 10:50:00,87.3,77.6,29.93,NNE,25,1.0,3.0,73,0.00,FEW,,0.00,WeatherDisplay:10.37,2013-04-22 00:50:00,
2013-04-22 10:55:00,87.3,77.6,29.92,NNE,25,1.0,2.0,73,0.00,FEW,,0.00,WeatherDisplay:10.37,2013-04-22 00:55:00,
2013-04-22 11:00:00,86.7,77.0,29.92,NNE,25,1.0,2.0,73,0.00,FEW,,0.00,WeatherDisplay:10.37,2013-04-22 01:00:00,
2013-04-22 11:10:00,86.1,77.7,29.92,NNE,25,0.0,2.0,76,0.00,FEW,,0.00,WeatherDisplay:10.37,2013-04-22 01:10:00,
2013-04-22 11:15:00,86.5,77.6,29.91,NNE,25,1.0,2.0,75,0.00,FEW,,0.00,WeatherDisplay:10.37,2013-04-22 01:15:00,
2013-04-22 11:20:00,87.0,78.1,29.91,NNE,26,0.0,2.0,75,0.00,FEW,,0.00,WeatherDisplay:10.37,2013-04-22 01:20:00,
2013-04-22 11:25:00,87.2,77.9,29.91,NNE,26,1.0,3.0,74,0.00,FEW,,0.00,WeatherDisplay:10.37,2013-04-22 01:25:00,
2013-04-22 11:30:00,87.2,78.3,29.91,NNE,26,0.0,2.0,75,0.00,FEW,,0.00,WeatherDisplay:10.37,2013-04-22 01:30:00,
2013-04-22 11:35:00,87.5,78.6,29.91,NNE,26,0.0,2.0,75,0.00,FEW,,0.00,WeatherDisplay:10.37,2013-04-22 01:35:00,
2013-04-22 11:40:00,87.5,78.2,29.91,NNE,26,1.0,3.0,74,0.00,FEW,,0.00,WeatherDisplay:10.37,2013-04-22 01:40:00,
2013-04-22 11:45:00,87.3,78.0,29.90,NNE,26,0.0,3.0,74,0.00,FEW,,0.00,WeatherDisplay:10.37,2013-04-22 01:45:00,
2013-04-22 11:50:00,86.8,77.9,29.90,NNE,23,2.0,4.0,75,0.00,FEW,,0.00,WeatherDisplay:10.37,2013-04-22 01:50:00,
2013-04-22 11:55:00,86.4,77.9,29.90,NNE,17,1.0,4.0,76,0.00,FEW,,0.00,WeatherDisplay:10.37,2013-04-22 01:55:00,
2013-04-22 12:00:00,86.5,78.4,29.90,NNE,16,0.0,2.0,77,0.00,FEW,,0.00,WeatherDisplay:10.37,2013-04-22 02:00:00,
2013-04-22 12:10:00,86.6,78.1,29.89,NNE,20,1.0,3.0,76,0.00,FEW,,0.00,WeatherDisplay:10.37,2013-04-22 02:10:00,
2013-04-22 12:15:00,86.7,78.2,29.89,NNE,20,0.0,3.0,76,0.00,FEW,,0.00,WeatherDisplay:10.37,2013-04-22 02:15:00,
2013-04-22 12:20:00,87.1,78.2,29.88,NNE,23,1.0,3.0,75,0.00,FEW,,0.00,WeatherDisplay:10.37,2013-04-22 02:20:00,
2013-04-22 12:25:00,87.0,77.7,29.88,NNE,33,1.0,3.0,74,0.00,FEW,,0.00,WeatherDisplay:10.37,2013-04-22 02:25:00,
2013-04-22 12:35:00,87.0,78.1,29.88,NE,41,0.0,2.0,75,0.00,FEW,,0.00,WeatherDisplay:10.37,2013-04-22 02:35:00,
2013-04-22 12:40:00,87.2,77.9,29.88,NE,50,1.0,3.0,74,0.00,FEW,,0.00,WeatherDisplay:10.37,2013-04-22 02:40:00,
2013-04-22 12:45:00,87.5,77.8,29.87,NE,48,0.0,4.0,73,0.00,FEW,,0.00,WeatherDisplay:10.37,2013-04-22 02:45:00,
2013-04-22 12:50:00,87.6,77.5,29.87,NE,46,1.0,4.0,72,0.00,FEW,,0.00,WeatherDisplay:10.37,2013-04-22 02:50:00,
2013-04-22 12:55:00,87.8,77.6,29.87,NE,53,1.0,3.0,72,0.00,FEW,,0.00,WeatherDisplay:10.37,2013-04-22 02:55:00,
2013-04-22 13:00:00,87.7,78.0,29.87,NE,44,0.0,4.0,73,0.00,FEW,,0.00,WeatherDisplay:10.37,2013-04-22 03:00:00,
2013-04-22 13:10:00,87.7,78.4,29.87,NE,45,0.0,3.0,74,0.00,FEW,,0.00,WeatherDisplay:10.37,2013-04-22 03:10:00,
2013-04-22 13:15:00,87.5,78.2,29.87,NE,49,0.0,3.0,74,0.00,FEW,,0.00,WeatherDisplay:10.37,2013-04-22 03:15:00,
2013-04-22 13:20:00,87.5,78.6,29.86,NE,56,1.0,5.0,75,0.00,FEW,,0.00,WeatherDisplay:10.37,2013-04-22 03:20:00,
2013-04-22 13:25:00,87.5,78.6,29.86,ENE,67,0.0,4.0,75,0.00,FEW,,0.00,WeatherDisplay:10.37,2013-04-22 03:25:00,
2013-04-22 13:30:00,87.5,78.2,29.86,ENE,66,0.0,3.0,74,0.00,FEW,,0.00,WeatherDisplay:10.37,2013-04-22 03:30:00,
2013-04-22 13:35:00,87.4,78.1,29.85,ENE,59,0.0,3.0,74,0.00,FEW,,0.00,WeatherDisplay:10.37,2013-04-22 03:35:00,
2013-04-22 13:40:00,87.4,78.5,29.85,ENE,58,1.0,5.0,75,0.00,FEW,,0.00,WeatherDisplay:10.37,2013-04-22 03:40:00,
2013-04-22 13:45:00,87.4,78.9,29.86,ENE,63,2.0,5.0,76,0.00,FEW,,0.00,WeatherDisplay:10.37,2013-04-22 03:45:00,
2013-04-22 13:50:00,87.4,78.5,29.85,ENE,67,3.0,7.0,75,0.00,FEW,,0.00,WeatherDisplay:10.37,2013-04-22 03:50:00,
2013-04-22 13:55:00,87.4,78.5,29.86,ENE,67,1.0,3.0,75,0.00,FEW,,0.00,WeatherDisplay:10.37,2013-04-22 03:55:00,
2013-04-22 14:00:00,87.4,78.5,29.86,ENE,66,1.0,4.0,75,0.00,FEW,,0.00,WeatherDisplay:10.37,2013-04-22 04:00:00,
2013-04-22 14:05:00,87.4,78.5,29.85,ENE,69,2.0,5.0,75,0.00,FEW,,0.00,WeatherDisplay:10.37,2013-04-22 04:05:00,
2013-04-22 14:10:00,87.2,78.3,29.85,NE,54,1.0,3.0,75,0.00,FEW,,0.00,WeatherDisplay:10.37,2013-04-22 04:10:00,
2013-04-22 14:15:00,87.0,78.1,29.85,NE,47,1.0,2.0,75,0.00,FEW,,0.00,WeatherDisplay:10.37,2013-04-22 04:15:00,
2013-04-22 14:20:00,86.9,78.0,29.85,NE,49,0.0,3.0,75,0.00,FEW,,0.00,WeatherDisplay:10.37,2013-04-22 04:20:00,
2013-04-22 14:25:00,86.8,78.4,29.85,NE,52,0.0,3.0,76,0.00,FEW,,0.00,WeatherDisplay:10.37,2013-04-22 04:25:00,
2013-04-22 14:30:00,86.9,78.4,29.85,NE,56,1.0,4.0,76,0.00,FEW,,0.00,WeatherDisplay:10.37,2013-04-22 04:30:00,
2013-04-22 14:35:00,86.8,77.9,29.85,ENE,62,0.0,3.0,75,0.00,FEW,,0.00,WeatherDisplay:10.37,2013-04-22 04:35:00,
2013-04-22 14:40:00,86.9,78.8,29.85,ENE,64,1.0,3.0,77,0.00,FEW,,0.00,WeatherDisplay:10.37,2013-04-22 04:40:00,
2013-04-22 14:45:00,86.8,77.5,29.85,ENE,69,1.0,5.0,74,0.00,FEW,,0.00,WeatherDisplay:10.37,2013-04-22 04:45:00,
2013-04-22 14:50:00,86.6,78.1,29.85,ENE,75,1.0,6.0,76,0.00,FEW,,0.00,WeatherDisplay:10.37,2013-04-22 04:50:00,
2013-04-22 14:55:00,86.5,78.0,29.85,ENE,69,1.0,5.0,76,0.00,FEW,,0.00,WeatherDisplay:10.37,2013-04-22 04:55:00,
2013-04-22 15:00:00,86.3,77.8,29.85,ENE,68,1.0,4.0,76,0.00,FEW,,0.00,WeatherDisplay:10.37,2013-04-22 05:00:00,
2013-04-22 15:10:00,86.1,77.6,29.85,ENE,71,1.0,4.0,76,0.00,FEW,,0.00,WeatherDisplay:10.37,2013-04-22 05:10:00,
2013-04-22 15:15:00,86.0,77.5,29.85,ENE,74,2.0,8.0,76,0.00,FEW,,0.00,WeatherDisplay:10.37,2013-04-22 05:15:00,
2013-04-22 15:25:00,85.6,77.5,29.85,ENE,66,0.0,3.0,77,0.00,FEW,,0.00,WeatherDisplay:10.37,2013-04-22 05:25:00,
2013-04-22 15:35:00,85.0,77.0,29.85,ENE,69,0.0,5.0,77,0.00,FEW,,0.00,WeatherDisplay:10.37,2013-04-22 05:35:00,
2013-04-22 15:40:00,84.7,77.1,29.85,ENE,70,0.0,5.0,78,0.00,FEW,,0.00,WeatherDisplay:10.37,2013-04-22 05:40:00,
2013-04-22 15:45:00,84.4,76.8,29.85,ENE,65,1.0,3.0,78,0.00,FEW,,0.00,WeatherDisplay:10.37,2013-04-22 05:45:00,
2013-04-22 15:50:00,84.1,76.5,29.86,ENE,64,0.0,2.0,78,0.00,FEW,,0.00,WeatherDisplay:10.37,2013-04-22 05:50:00,
2013-04-22 15:55:00,84.0,76.8,29.86,ENE,67,1.0,3.0,79,0.00,FEW,,0.00,WeatherDisplay:10.37,2013-04-22 05:55:00,
2013-04-22 16:00:00,83.7,76.5,29.86,ENE,70,1.0,4.0,79,0.00,FEW,,0.00,WeatherDisplay:10.37,2013-04-22 06:00:00,
2013-04-22 16:10:00,83.4,76.2,29.86,ENE,73,0.0,3.0,79,0.00,FEW,,0.00,WeatherDisplay:10.37,2013-04-22 06:10:00,
2013-04-22 16:15:00,83.3,76.5,29.86,ENE,72,0.0,3.0,80,0.00,FEW,,0.00,WeatherDisplay:10.37,2013-04-22 06:15:00,
2013-04-22 16:20:00,83.1,76.3,29.86,ENE,72,0.0,3.0,80,0.00,FEW,,0.00,WeatherDisplay:10.37,2013-04-22 06:20:00,
2013-04-22 16:25:00,83.0,76.6,29.86,ENE,72,0.0,5.0,81,0.00,FEW,,0.00,WeatherDisplay:10.37,2013-04-22 06:25:00,
2013-04-22 16:30:00,82.9,76.1,29.86,ENE,70,0.0,3.0,80,0.00,FEW,,0.00,WeatherDisplay:10.37,2013-04-22 06:30:00,
2013-04-22 16:40:00,82.6,76.6,29.86,ENE,72,0.0,4.0,82,0.00,FEW,,0.00,WeatherDisplay:10.37,2013-04-22 06:40:00,
2013-04-22 16:45:00,82.5,76.4,29.86,ENE,72,1.0,6.0,82,0.00,FEW,,0.00,WeatherDisplay:10.37,2013-04-22 06:45:00,
2013-04-22 16:50:00,82.4,76.0,29.86,ENE,69,1.0,5.0,81,0.00,FEW,,0.00,WeatherDisplay:10.37,2013-04-22 06:50:00,
2013-04-22 16:55:00,82.3,76.3,29.86,ENE,67,1.0,6.0,82,0.00,FEW,,0.00,WeatherDisplay:10.37,2013-04-22 06:55:00,
2013-04-22 17:00:00,82.3,76.2,29.86,ENE,66,2.0,5.0,82,0.00,FEW,,0.00,WeatherDisplay:10.37,2013-04-22 07:00:00,
2013-04-22 17:05:00,82.1,76.1,29.86,ENE,66,2.0,6.0,82,0.00,FEW,,0.00,WeatherDisplay:10.37,2013-04-22 07:05:00,
2013-04-22 17:10:00,81.9,75.9,29.86,ENE,67,1.0,6.0,82,0.00,FEW,,0.00,WeatherDisplay:10.37,2013-04-22 07:10:00,
2013-04-22 17:15:00,81.8,75.8,29.86,ENE,67,0.0,2.0,82,0.00,FEW,,0.00,WeatherDisplay:10.37,2013-04-22 07:15:00,
2013-04-22 17:20:00,81.7,76.0,29.86,ENE,68,0.0,4.0,83,0.00,FEW,,0.00,WeatherDisplay:10.37,2013-04-22 07:20:00,
2013-04-22 17:25:00,81.7,76.0,29.86,ENE,68,0.0,4.0,83,0.00,FEW,,0.00,WeatherDisplay:10.37,2013-04-22 07:25:00,
2013-04-22 17:30:00,81.6,76.0,29.86,ENE,68,0.0,3.0,83,0.00,FEW,,0.00,WeatherDisplay:10.37,2013-04-22 07:30:00,
2013-04-22 17:35:00,81.6,76.3,29.86,ENE,70,1.0,7.0,84,0.00,FEW,,0.00,WeatherDisplay:10.37,2013-04-22 07:35:00,
2013-04-22 17:45:00,81.5,76.2,29.87,ENE,65,2.0,4.0,84,0.00,FEW,,0.00,WeatherDisplay:10.37,2013-04-22 07:45:00,
2013-04-22 17:50:00,81.4,75.7,29.87,ENE,62,0.0,4.0,83,0.00,FEW,,0.00,WeatherDisplay:10.37,2013-04-22 07:50:00,
2013-04-22 17:55:00,81.3,75.6,29.87,ENE,64,1.0,5.0,83,0.00,FEW,,0.00,WeatherDisplay:10.37,2013-04-22 07:55:00,
2013-04-22 18:00:00,81.2,75.6,29.87,ENE,67,1.0,6.0,83,0.00,FEW,,0.00,WeatherDisplay:10.37,2013-04-22 08:00:00,
2013-04-22 18:10:00,81.2,75.5,29.88,ENE,70,0.0,4.0,83,0.00,FEW,,0.00,WeatherDisplay:10.37,2013-04-22 08:10:00,
2013-04-22 18:15:00,81.2,75.5,29.88,ENE,69,3.0,6.0,83,0.00,FEW,,0.00,WeatherDisplay:10.37,2013-04-22 08:15:00,
2013-04-22 18:20:00,81.2,75.5,29.88,ENE,68,2.0,5.0,83,0.00,FEW,,0.00,WeatherDisplay:10.37,2013-04-22 08:20:00,
2013-04-22 18:25:00,81.2,75.5,29.88,ENE,67,0.0,5.0,83,0.00,FEW,,0.00,WeatherDisplay:10.37,2013-04-22 08:25:00,
2013-04-22 18:30:00,81.1,75.4,29.88,ENE,70,5.0,6.0,83,0.00,SCT,,0.00,WeatherDisplay:10.37,2013-04-22 08:30:00,
2013-04-22 18:40:00,81.0,75.3,29.88,East,80,5.0,8.0,83,0.00,SCT,,0.00,WeatherDisplay:10.37,2013-04-22 08:40:00,
2013-04-22 18:45:00,81.1,75.4,29.89,ENE,77,3.0,6.0,83,0.00,SCT,,0.00,WeatherDisplay:10.37,2013-04-22 08:45:00,
2013-04-22 18:50:00,80.9,75.3,29.89,East,84,6.0,9.0,83,0.00,SCT,,0.00,WeatherDisplay:10.37,2013-04-22 08:50:00,
2013-04-22 18:55:00,80.9,75.2,29.89,East,87,5.0,8.0,83,0.00,SCT,,0.00,WeatherDisplay:10.37,2013-04-22 08:55:00,
2013-04-22 19:00:00,80.8,75.1,29.89,East,87,5.0,8.0,83,0.00,SCT,,0.00,WeatherDisplay:10.37,2013-04-22 09:00:00,
2013-04-22 19:05:00,80.9,75.2,29.89,East,87,5.0,9.0,83,0.00,SCT,,0.00,WeatherDisplay:10.37,2013-04-22 09:05:00,
2013-04-22 19:10:00,80.8,75.2,29.89,East,88,3.0,7.0,83,0.00,SCT,,0.00,WeatherDisplay:10.37,2013-04-22 09:10:00,
2013-04-22 19:15:00,80.8,75.2,29.89,East,90,3.0,8.0,83,0.00,SCT,,0.00,WeatherDisplay:10.37,2013-04-22 09:15:00,
2013-04-22 19:20:00,80.7,75.1,29.90,East,90,5.0,10.0,83,0.00,SCT,,0.00,WeatherDisplay:10.37,2013-04-22 09:20:00,
2013-04-22 19:25:00,80.7,75.1,29.90,East,89,3.0,9.0,83,0.00,SCT,,0.00,WeatherDisplay:10.37,2013-04-22 09:25:00,
2013-04-22 19:30:00,80.7,75.4,29.90,East,90,6.0,9.0,84,0.00,SCT,,0.00,WeatherDisplay:10.37,2013-04-22 09:30:00,
2013-04-22 19:35:00,80.7,75.4,29.91,East,90,5.0,10.0,84,0.00,SCT,,0.00,WeatherDisplay:10.37,2013-04-22 09:35:00,
2013-04-22 19:40:00,80.7,75.4,29.91,East,89,6.0,10.0,84,0.00,SCT,,0.00,WeatherDisplay:10.37,2013-04-22 09:40:00,
2013-04-22 19:45:00,80.6,75.0,29.91,East,89,7.0,9.0,83,0.00,SCT,,0.00,WeatherDisplay:10.37,2013-04-22 09:45:00,
2013-04-22 19:50:00,80.6,75.0,29.91,East,90,3.0,6.0,83,0.00,SCT,,0.00,WeatherDisplay:10.37,2013-04-22 09:50:00,
2013-04-22 19:55:00,80.6,74.9,29.92,East,91,5.0,9.0,83,0.00,SCT,,0.00,WeatherDisplay:10.37,2013-04-22 09:55:00,
2013-04-22 20:00:00,80.7,75.4,29.92,East,89,3.0,9.0,84,0.00,SCT,,0.00,WeatherDisplay:10.37,2013-04-22 10:00:00,
2013-04-22 20:10:00,80.5,75.3,29.92,East,87,2.0,4.0,84,0.00,SCT,,0.00,WeatherDisplay:10.37,2013-04-22 10:10:00,
2013-04-22 20:15:00,80.5,75.2,29.92,East,89,3.0,6.0,84,0.00,SCT,,0.00,WeatherDisplay:10.37,2013-04-22 10:15:00,
2013-04-22 20:20:00,80.5,75.2,29.92,East,90,5.0,10.0,84,0.00,SCT,,0.00,WeatherDisplay:10.37,2013-04-22 10:20:00,
2013-04-22 20:25:00,80.5,75.2,29.93,East,87,2.0,8.0,84,0.00,SCT,,0.00,WeatherDisplay:10.37,2013-04-22 10:25:00,
2013-04-22 20:30:00,80.5,75.2,29.93,East,84,5.0,6.0,84,0.00,SCT,,0.00,WeatherDisplay:10.37,2013-04-22 10:30:00,
2013-04-22 20:35:00,80.4,75.1,29.93,East,87,2.0,5.0,84,0.00,SCT,,0.00,WeatherDisplay:10.37,2013-04-22 10:35:00,
2013-04-22 20:40:00,80.2,74.6,29.93,East,89,5.0,7.0,83,0.00,BKN,,0.00,WeatherDisplay:10.37,2013-04-22 10:40:00,
2013-04-22 20:45:00,80.3,75.0,29.93,East,88,5.0,7.0,84,0.00,BKN,,0.00,WeatherDisplay:10.37,2013-04-22 10:45:00,
2013-04-22 20:50:00,80.3,75.0,29.93,East,90,3.0,8.0,84,0.00,BKN,,0.00,WeatherDisplay:10.37,2013-04-22 10:50:00,
2013-04-22 21:00:00,80.2,74.9,29.93,East,90,1.0,6.0,84,0.00,BKN,,0.00,WeatherDisplay:10.37,2013-04-22 11:00:00,
2013-04-22 21:10:00,80.0,74.7,29.94,East,89,0.0,1.0,84,0.00,SCT,,0.00,WeatherDisplay:10.37,2013-04-22 11:10:00,
2013-04-22 21:15:00,79.8,74.2,29.94,East,89,0.0,0.0,83,0.00,SCT,,0.00,WeatherDisplay:10.37,2013-04-22 11:15:00,
2013-04-22 21:20:00,79.6,74.4,29.94,East,89,0.0,1.0,84,0.00,SCT,,0.00,WeatherDisplay:10.37,2013-04-22 11:20:00,
2013-04-22 21:25:00,79.5,74.2,29.94,East,89,0.0,1.0,84,0.00,SCT,,0.00,WeatherDisplay:10.37,2013-04-22 11:25:00,
2013-04-22 21:30:00,79.3,74.0,29.94,East,89,0.0,1.0,84,0.00,SCT,,0.00,WeatherDisplay:10.37,2013-04-22 11:30:00,
2013-04-22 21:35:00,79.1,73.8,29.94,East,89,0.0,0.0,84,0.00,SCT,,0.00,WeatherDisplay:10.37,2013-04-22 11:35:00,
2013-04-22 21:40:00,78.9,73.6,29.95,East,89,0.0,0.0,84,0.00,SCT,,0.00,WeatherDisplay:10.37,2013-04-22 11:40:00,
2013-04-22 21:45:00,78.7,73.4,29.94,East,89,0.0,0.0,84,0.00,SCT,,0.00,WeatherDisplay:10.37,2013-04-22 11:45:00,
2013-04-22 21:50:00,78.4,73.2,29.94,East,89,0.0,0.0,84,0.00,SCT,,0.00,WeatherDisplay:10.37,2013-04-22 11:50:00,
2013-04-22 21:55:00,78.2,73.3,29.94,East,89,0.0,1.0,85,0.00,SCT,,0.00,WeatherDisplay:10.37,2013-04-22 11:55:00,
2013-04-22 22:00:00,77.9,73.0,29.94,East,89,0.0,1.0,85,0.00,SCT,,0.00,WeatherDisplay:10.37,2013-04-22 12:00:00,
2013-04-22 22:10:00,77.5,72.6,29.94,East,89,0.0,1.0,85,0.00,FEW,,0.00,WeatherDisplay:10.37,2013-04-22 12:10:00,
2013-04-22 22:15:00,77.4,72.9,29.94,East,89,0.0,0.0,86,0.00,FEW,,0.00,WeatherDisplay:10.37,2013-04-22 12:15:00,
2013-04-22 22:20:00,77.3,72.8,29.94,East,89,0.0,0.0,86,0.00,SCT,,0.00,WeatherDisplay:10.37,2013-04-22 12:20:00,
2013-04-22 22:30:00,77.1,72.6,29.94,East,89,0.0,0.0,86,0.00,SCT,,0.00,WeatherDisplay:10.37,2013-04-22 12:30:00,
2013-04-22 22:35:00,77.0,72.5,29.93,East,89,0.0,1.0,86,0.00,SCT,,0.00,WeatherDisplay:10.37,2013-04-22 12:35:00,
2013-04-22 22:40:00,76.8,72.3,29.93,East,89,0.0,1.0,86,0.00,SCT,,0.00,WeatherDisplay:10.37,2013-04-22 12:40:00,
2013-04-22 22:45:00,76.7,72.2,29.93,East,89,0.0,0.0,86,0.00,SCT,,0.00,WeatherDisplay:10.37,2013-04-22 12:45:00,
2013-04-22 22:50:00,76.6,72.4,29.93,East,89,0.0,0.0,87,0.00,SCT,,0.00,WeatherDisplay:10.37,2013-04-22 12:50:00,
2013-04-22 22:55:00,76.4,72.3,29.94,East,89,0.0,1.0,87,0.00,SCT,,0.00,WeatherDisplay:10.37,2013-04-22 12:55:00,
2013-04-22 23:00:00,76.3,72.1,29.94,East,89,0.0,2.0,87,0.00,SCT,,0.00,WeatherDisplay:10.37,2013-04-22 13:00:00,
2013-04-22 23:10:00,76.1,71.9,29.94,East,89,0.0,0.0,87,0.00,SCT,,0.00,WeatherDisplay:10.37,2013-04-22 13:10:00,
2013-04-22 23:15:00,76.0,71.8,29.94,East,89,0.0,0.0,87,0.00,SCT,,0.00,WeatherDisplay:10.37,2013-04-22 13:15:00,
2013-04-22 23:20:00,75.9,71.8,29.94,East,89,0.0,0.0,87,0.00,FEW,,0.00,WeatherDisplay:10.37,2013-04-22 13:20:00,
2013-04-22 23:25:00,75.8,72.0,29.94,East,89,0.0,0.0,88,0.00,FEW,,0.00,WeatherDisplay:10.37,2013-04-22 13:25:00,
2013-04-22 23:30:00,75.7,71.9,29.94,East,89,0.0,0.0,88,0.00,FEW,,0.00,WeatherDisplay:10.37,2013-04-22 13:30:00,
2013-04-22 23:35:00,75.5,71.7,29.94,East,89,0.0,1.0,88,0.00,FEW,,0.00,WeatherDisplay:10.37,2013-04-22 13:35:00,
2013-04-22 23:45:00,75.3,71.5,29.93,East,89,0.0,0.0,88,0.00,FEW,,0.00,WeatherDisplay:10.37,2013-04-22 13:45:00,
2013-04-22 23:50:00,75.2,71.4,29.93,East,89,0.0,1.0,88,0.00,FEW,,0.00,WeatherDisplay:10.37,2013-04-22 13:50:00,
2013-04-22 23:55:00,75.1,71.7,29.93,East,89,0.0,1.0,89,0.00,FEW,,0.00,WeatherDisplay:10.37,2013-04-22 13:55:00,